createdAt,value
2023-10-06T00:02:30.057Z,100112.16
2023-10-06T00:04:59.350Z,100109.00
2023-10-06T00:07:27.761Z,100110.22
2023-10-06T00:09:56.703Z,100110.97
2023-10-06T00:12:27.632Z,100114.13
2023-10-06T00:14:59.396Z,100113.69
2023-10-06T00:17:29.711Z,100112.09
2023-10-06T00:20:01.239Z,100103.19
2023-10-06T00:22:30.457Z,100099.59
2023-10-06T00:25:01.225Z,100104.81
2023-10-06T00:27:32.282Z,100104.72
2023-10-06T00:30:13.027Z,100093.41
2023-10-06T00:32:43.534Z,100092.31
2023-10-06T00:35:13.070Z,100099.59
2023-10-06T00:37:42.696Z,100098.34
2023-10-06T00:40:21.142Z,100102.50
2023-10-06T00:42:54.562Z,100100.50
2023-10-06T00:45:25.777Z,100110.03
2023-10-06T00:47:55.361Z,100105.34
2023-10-06T00:50:25.389Z,100104.09
2023-10-06T00:52:57.139Z,100103.97
2023-10-06T00:55:28.005Z,100091.41
2023-10-06T00:57:56.273Z,100090.94
2023-10-06T01:00:26.727Z,100086.94
2023-10-06T01:02:54.942Z,100083.44
2023-10-06T01:05:26.840Z,100079.19
2023-10-06T01:07:55.909Z,100082.66
2023-10-06T01:10:29.554Z,100086.13
2023-10-06T01:12:58.602Z,100081.78
2023-10-06T01:15:31.119Z,100081.00
2023-10-06T01:18:00.660Z,100072.94
2023-10-06T01:20:35.334Z,100085.81
2023-10-06T01:23:11.820Z,100083.78
2023-10-06T01:25:41.014Z,100089.25
2023-10-06T01:28:13.892Z,100092.41
2023-10-06T01:30:42.301Z,100089.69
2023-10-06T01:33:09.947Z,100088.41
2023-10-06T01:35:43.929Z,100094.66
2023-10-06T01:38:23.546Z,100086.47
2023-10-06T01:40:56.015Z,100089.59
2023-10-06T01:43:31.403Z,100098.13
2023-10-06T01:46:00.958Z,100100.38
2023-10-06T01:48:31.582Z,100093.66
2023-10-06T01:51:00.019Z,100095.94
2023-10-06T01:53:34.594Z,100095.81
2023-10-06T01:56:08.044Z,100098.47
2023-10-06T01:58:38.835Z,100093.41
2023-10-06T02:01:08.524Z,100092.66
2023-10-06T02:03:41.785Z,100088.72
2023-10-06T02:06:17.301Z,100086.63
2023-10-06T02:08:50.888Z,100079.13
2023-10-06T02:11:22.230Z,100089.56
2023-10-06T02:13:50.443Z,100091.50
2023-10-06T02:16:24.456Z,100093.06
2023-10-06T02:18:55.260Z,100097.41
2023-10-06T02:21:26.304Z,100091.94
2023-10-06T02:24:00.994Z,100097.81
2023-10-06T02:26:29.236Z,100105.25
2023-10-06T02:28:57.949Z,100105.63
2023-10-06T02:31:27.838Z,100099.41
2023-10-06T02:33:56.596Z,100104.84
2023-10-06T02:36:24.912Z,100104.91
2023-10-06T02:38:55.215Z,100102.97
2023-10-06T02:41:27.575Z,100101.09
2023-10-06T02:43:56.857Z,100110.56
2023-10-06T02:46:27.126Z,100104.56
2023-10-06T02:48:55.704Z,100110.41
2023-10-06T02:51:33.733Z,100107.34
2023-10-06T02:54:22.613Z,100112.38
2023-10-06T02:56:52.165Z,100104.97
2023-10-06T02:59:25.163Z,100096.22
2023-10-06T03:01:57.145Z,100101.63
2023-10-06T03:04:27.999Z,100105.78
2023-10-06T03:06:58.176Z,100097.94
2023-10-06T03:09:38.358Z,100094.09
2023-10-06T03:12:13.605Z,100094.28
2023-10-06T03:14:41.906Z,100089.47
2023-10-06T03:17:12.111Z,100094.91
2023-10-06T03:19:42.203Z,100090.75
2023-10-06T03:22:13.839Z,100098.06
2023-10-06T03:24:54.714Z,100093.84
2023-10-06T03:27:24.932Z,100091.50
2023-10-06T03:29:56.325Z,100089.06
2023-10-06T03:32:34.150Z,100088.63
2023-10-06T03:35:13.215Z,100089.41
2023-10-06T03:37:53.145Z,100094.91
2023-10-06T03:40:26.685Z,100089.94
2023-10-06T03:42:55.132Z,100085.66
2023-10-06T03:45:30.447Z,100082.16
2023-10-06T03:48:09.905Z,100087.88
2023-10-06T03:50:44.128Z,100089.41
2023-10-06T03:53:16.462Z,100091.19
2023-10-06T03:55:47.784Z,100092.66
2023-10-06T03:58:17.895Z,100089.84
2023-10-06T04:00:50.947Z,100089.56
2023-10-06T04:03:21.636Z,100090.41
2023-10-06T04:05:51.441Z,100092.00
2023-10-06T04:08:22.685Z,100088.78
2023-10-06T04:10:56.222Z,100087.97
2023-10-06T04:13:24.679Z,100096.66
2023-10-06T04:15:53.987Z,100104.75
2023-10-06T04:18:25.013Z,100105.56
2023-10-06T04:20:54.948Z,100110.59
2023-10-06T04:23:25.227Z,100122.63
2023-10-06T04:25:58.093Z,100121.84
2023-10-06T04:28:29.720Z,100128.47
2023-10-06T04:31:02.484Z,100123.41
2023-10-06T04:33:31.215Z,100120.69
2023-10-06T04:36:02.389Z,100131.88
2023-10-06T04:38:30.981Z,100140.44
2023-10-06T04:41:01.153Z,100145.88
2023-10-06T04:43:29.451Z,100134.47
2023-10-06T04:45:57.914Z,100144.88
2023-10-06T04:48:26.219Z,100144.09
2023-10-06T04:50:57.176Z,100146.22
2023-10-06T04:53:25.509Z,100153.69
2023-10-06T04:55:53.927Z,100148.75
2023-10-06T04:58:24.357Z,100151.56
2023-10-06T05:00:55.144Z,100155.84
2023-10-06T05:03:26.103Z,100156.13
2023-10-06T05:05:57.128Z,100154.84
2023-10-06T05:08:26.139Z,100156.13
2023-10-06T05:10:57.247Z,100158.84
2023-10-06T05:13:28.063Z,100158.34
2023-10-06T05:15:56.582Z,100161.22
2023-10-06T05:18:25.768Z,100163.72
2023-10-06T05:20:54.626Z,100165.50
2023-10-06T05:23:23.342Z,100163.78
2023-10-06T05:25:51.705Z,100169.66
2023-10-06T05:28:22.040Z,100167.13
2023-10-06T05:30:52.149Z,100172.75
2023-10-06T05:33:20.855Z,100170.88
2023-10-06T05:35:49.669Z,100168.31
2023-10-06T05:38:18.236Z,100171.88
2023-10-06T05:40:48.089Z,100177.63
2023-10-06T05:43:18.388Z,100170.72
2023-10-06T05:45:53.758Z,100171.06
2023-10-06T05:48:23.968Z,100165.69
2023-10-06T05:50:53.859Z,100161.75
2023-10-06T05:53:24.483Z,100165.34
2023-10-06T05:55:53.803Z,100163.81
2023-10-06T05:58:24.868Z,100169.94
2023-10-06T06:00:54.015Z,100175.44
2023-10-06T06:03:25.220Z,100171.94
2023-10-06T06:05:54.729Z,100175.66
2023-10-06T06:08:23.422Z,100171.09
2023-10-06T06:10:51.987Z,100169.63
2023-10-06T06:13:22.924Z,100178.72
2023-10-06T06:15:51.847Z,100175.31
2023-10-06T06:18:20.115Z,100179.72
2023-10-06T06:20:49.859Z,100179.47
2023-10-06T06:23:18.462Z,100177.25
2023-10-06T06:25:47.092Z,100182.09
2023-10-06T06:28:17.861Z,100180.94
2023-10-06T06:30:48.605Z,100175.91
2023-10-06T06:33:20.379Z,100179.88
2023-10-06T06:35:50.425Z,100179.19
2023-10-06T06:38:20.128Z,100176.91
2023-10-06T06:40:49.373Z,100182.44
2023-10-06T06:43:21.445Z,100187.19
2023-10-06T06:45:50.034Z,100181.69
2023-10-06T06:48:21.125Z,100184.47
2023-10-06T06:50:50.899Z,100180.97
2023-10-06T06:53:20.115Z,100192.78
2023-10-06T06:55:48.671Z,100181.78
2023-10-06T06:58:18.173Z,100187.69
2023-10-06T07:00:49.419Z,100183.75
2023-10-06T07:03:18.155Z,100187.31
2023-10-06T07:05:46.546Z,100166.88
2023-10-06T07:08:16.783Z,100180.22
2023-10-06T07:10:48.502Z,100175.09
2023-10-06T07:13:17.255Z,100175.06
2023-10-06T07:15:46.284Z,100189.59
2023-10-06T07:18:16.079Z,100182.88
2023-10-06T07:20:45.600Z,100182.44
2023-10-06T07:23:15.341Z,100184.69
2023-10-06T07:25:44.425Z,100183.03
2023-10-06T07:28:13.641Z,100188.91
2023-10-06T07:30:42.203Z,100186.84
2023-10-06T07:33:10.910Z,100193.13
2023-10-06T07:35:45.139Z,100183.69
2023-10-06T07:38:15.258Z,100189.91
2023-10-06T07:40:45.280Z,100183.59
2023-10-06T07:43:14.627Z,100187.44
2023-10-06T07:45:43.099Z,100182.34
2023-10-06T07:48:11.828Z,100181.84
2023-10-06T07:50:40.024Z,100180.28
2023-10-06T07:53:08.757Z,100177.31
2023-10-06T07:55:38.315Z,100173.88
2023-10-06T07:58:09.623Z,100171.81
2023-10-06T08:00:43.410Z,100171.31
2023-10-06T08:03:12.336Z,100173.13
2023-10-06T08:05:41.881Z,100179.34
2023-10-06T08:08:10.838Z,100176.16
2023-10-06T08:10:39.423Z,100178.91
2023-10-06T08:13:09.328Z,100160.91
2023-10-06T08:15:41.938Z,100175.03
2023-10-06T08:18:10.347Z,100172.66
2023-10-06T08:20:41.498Z,100163.56
2023-10-06T08:23:09.963Z,100162.38
2023-10-06T08:25:56.882Z,100163.44
2023-10-06T08:28:28.392Z,100162.44
2023-10-06T08:30:56.728Z,100167.44
2023-10-06T08:33:28.922Z,100162.78
2023-10-06T08:36:02.568Z,100160.81
2023-10-06T08:38:31.889Z,100158.72
2023-10-06T08:41:04.528Z,100157.94
2023-10-06T08:43:40.162Z,100158.41
2023-10-06T08:46:09.878Z,100161.25
2023-10-06T08:48:39.918Z,100159.09
2023-10-06T08:51:12.407Z,100165.56
2023-10-06T08:53:43.338Z,100163.88
2023-10-06T08:56:16.720Z,100162.19
2023-10-06T08:58:47.266Z,100160.94
2023-10-06T09:01:16.288Z,100158.03
2023-10-06T09:03:44.761Z,100156.59
2023-10-06T09:06:14.425Z,100148.84
2023-10-06T09:08:44.021Z,100153.16
2023-10-06T09:11:13.273Z,100150.34
2023-10-06T09:13:43.451Z,100150.09
2023-10-06T09:16:13.654Z,100146.97
2023-10-06T09:18:42.703Z,100146.72
2023-10-06T09:21:17.377Z,100150.63
2023-10-06T09:23:46.260Z,100142.41
2023-10-06T09:26:17.312Z,100147.44
2023-10-06T09:28:53.445Z,100148.22
2023-10-06T09:31:37.137Z,100140.69
2023-10-06T09:34:09.448Z,100139.22
2023-10-06T09:36:44.126Z,100137.84
2023-10-06T09:39:18.971Z,100131.94
2023-10-06T09:41:49.384Z,100135.16
2023-10-06T09:44:21.076Z,100140.78
2023-10-06T09:46:54.762Z,100127.78
2023-10-06T09:49:24.320Z,100118.69
2023-10-06T09:51:54.179Z,100121.28
2023-10-06T09:54:22.997Z,100113.91
2023-10-06T09:56:56.784Z,100120.06
2023-10-06T09:59:27.773Z,100120.53
2023-10-06T10:02:00.381Z,100110.16
2023-10-06T10:04:33.037Z,100110.84
2023-10-06T10:07:05.410Z,100102.69
2023-10-06T10:12:39.118Z,100096.06
2023-10-06T10:15:23.256Z,100089.22
2023-10-06T10:18:02.534Z,100097.78
2023-10-06T10:20:31.266Z,100091.47
2023-10-06T10:23:04.424Z,100088.44
2023-10-06T10:25:32.783Z,100087.38
2023-10-06T10:28:15.419Z,100079.28
2023-10-06T10:30:54.995Z,100071.38
2023-10-06T10:33:25.757Z,100071.84
2023-10-06T10:36:22.139Z,100063.28
2023-10-06T10:39:02.659Z,100059.59
2023-10-06T10:41:36.854Z,100056.63
2023-10-06T10:44:24.879Z,100041.97
2023-10-06T10:46:55.626Z,100052.41
2023-10-06T10:49:25.593Z,100037.28
2023-10-06T10:51:58.689Z,100038.09
2023-10-06T10:54:29.751Z,100024.75
2023-10-06T10:57:03.655Z,100022.72
2023-10-06T11:00:13.488Z,100010.81
2023-10-06T11:02:43.717Z,100010.50
2023-10-06T11:05:13.672Z,100015.94
2023-10-06T11:07:43.562Z,100005.09
2023-10-06T11:10:15.308Z,100001.75
2023-10-06T11:12:43.673Z,100003.34
2023-10-06T11:15:17.737Z,99993.31
2023-10-06T11:17:46.998Z,99991.13
2023-10-06T11:20:23.340Z,99987.31
2023-10-06T11:22:56.859Z,99976.06
2023-10-06T11:25:28.899Z,99976.19
2023-10-06T11:27:58.215Z,99978.94
2023-10-06T11:30:30.445Z,99975.56
2023-10-06T11:32:59.352Z,99970.56
2023-10-06T11:35:29.292Z,99975.00
2023-10-06T11:37:57.916Z,99974.19
2023-10-06T11:40:26.902Z,99970.84
2023-10-06T11:42:55.795Z,99972.19
2023-10-06T11:45:25.590Z,99975.09
2023-10-06T11:47:54.855Z,99976.47
2023-10-06T11:50:25.990Z,99967.69
2023-10-06T11:52:56.669Z,99970.00
2023-10-06T11:55:26.316Z,99969.34
2023-10-06T11:57:55.564Z,99967.22
2023-10-06T12:00:40.072Z,99959.53
2023-10-06T12:03:11.686Z,99961.00
2023-10-06T12:05:42.905Z,99958.56
2023-10-06T12:08:13.826Z,99962.75
2023-10-06T12:10:49.987Z,99948.41
2023-10-06T12:13:18.658Z,99947.88
2023-10-06T12:15:47.472Z,99942.03
2023-10-06T12:18:16.571Z,99952.56
2023-10-06T12:20:45.068Z,99943.00
2023-10-06T12:23:14.793Z,99945.84
2023-10-06T12:25:43.004Z,99945.66
2023-10-06T12:28:15.265Z,99943.75
2023-10-06T12:30:43.731Z,99940.44
2023-10-06T12:33:12.875Z,99947.91
2023-10-06T12:35:41.312Z,99946.03
2023-10-06T12:38:09.962Z,99947.28
2023-10-06T12:40:40.404Z,99946.06
2023-10-06T12:43:09.408Z,99946.56
2023-10-06T12:45:38.092Z,99943.34
2023-10-06T12:48:09.407Z,99941.59
2023-10-06T12:50:42.398Z,99946.91
2023-10-06T12:53:12.699Z,99936.06
2023-10-06T12:55:44.423Z,99945.19
2023-10-06T12:58:16.333Z,99941.09
2023-10-06T13:00:45.642Z,99940.78
2023-10-06T13:03:18.169Z,99938.91
2023-10-06T13:05:48.040Z,99937.81
2023-10-06T13:08:18.700Z,99939.47
2023-10-06T13:10:49.112Z,99937.69
2023-10-06T13:13:18.578Z,99935.81
2023-10-06T13:15:47.932Z,99938.59
2023-10-06T13:18:18.781Z,99933.97
2023-10-06T13:20:47.954Z,99935.63
2023-10-06T13:23:16.726Z,99931.75
2023-10-06T13:25:47.334Z,99927.28
2023-10-06T13:28:21.901Z,99929.63
2023-10-06T13:30:52.998Z,99928.75
2023-10-06T13:33:21.889Z,99926.59
2023-10-06T13:35:50.375Z,99923.81
2023-10-06T13:38:18.904Z,99926.41
2023-10-06T13:40:47.741Z,99923.41
2023-10-06T13:43:18.904Z,99926.75
2023-10-06T13:45:47.317Z,99930.56
2023-10-06T13:48:17.543Z,99923.38
2023-10-06T13:50:47.210Z,99921.09
2023-10-06T13:53:16.571Z,99923.09
2023-10-06T13:55:46.151Z,99923.31
2023-10-06T13:58:14.898Z,99922.63
2023-10-06T14:00:44.589Z,99928.78
2023-10-06T14:03:15.253Z,99923.09
2023-10-06T14:05:45.522Z,99923.19
2023-10-06T14:08:16.059Z,99930.97
2023-10-06T14:10:44.320Z,99926.81
2023-10-06T14:13:18.063Z,99927.81
2023-10-06T14:15:55.924Z,99930.66
2023-10-06T14:18:26.633Z,99935.31
2023-10-06T14:20:59.030Z,99932.31
2023-10-06T14:23:31.529Z,99933.97
2023-10-06T14:26:02.397Z,99927.31
2023-10-06T14:28:30.909Z,99933.22
2023-10-06T14:31:10.414Z,99941.94
2023-10-06T14:33:45.745Z,99936.16
2023-10-06T14:36:25.948Z,99935.56
2023-10-06T14:39:11.590Z,99937.00
2023-10-06T14:41:57.413Z,99940.63
2023-10-06T14:44:39.596Z,99942.50
2023-10-06T14:47:11.595Z,99940.41
2023-10-06T14:52:33.692Z,99956.78
2023-10-06T14:55:01.939Z,99963.13
2023-10-06T14:57:30.127Z,99950.81
2023-10-06T14:59:58.998Z,99967.09
2023-10-06T15:02:28.705Z,99955.59
2023-10-06T15:04:57.165Z,99965.03
2023-10-06T15:07:25.366Z,99969.09
2023-10-06T15:09:53.636Z,99968.31
2023-10-06T15:12:26.683Z,99967.09
2023-10-06T15:14:55.442Z,99966.00
2023-10-06T15:17:24.148Z,99976.38
2023-10-06T15:19:54.299Z,99976.47
2023-10-06T15:22:23.662Z,99980.97
2023-10-06T15:24:52.061Z,99977.63
2023-10-06T15:27:20.424Z,99984.81
2023-10-06T15:29:52.312Z,99986.22
2023-10-06T15:32:20.744Z,99989.22
2023-10-06T15:34:49.064Z,99989.78
2023-10-06T15:37:19.096Z,99991.25
2023-10-06T15:39:47.680Z,99997.81
2023-10-06T15:42:15.875Z,100003.16
2023-10-06T15:44:44.118Z,100002.09
2023-10-06T15:47:13.501Z,100005.41
2023-10-06T15:49:45.070Z,100007.63
2023-10-06T15:52:13.327Z,100018.50
2023-10-06T15:54:42.860Z,100019.91
2023-10-06T15:57:11.143Z,100023.19
2023-10-06T15:59:40.286Z,100023.09
2023-10-06T16:02:11.176Z,100037.31
2023-10-06T16:04:40.586Z,100037.06
2023-10-06T16:07:09.879Z,100045.03
2023-10-06T16:09:38.014Z,100049.81
2023-10-06T16:12:11.261Z,100046.09
2023-10-06T16:14:39.723Z,100054.31
2023-10-06T16:17:08.038Z,100057.84
2023-10-06T16:19:37.833Z,100071.03
2023-10-06T16:22:09.070Z,100065.56
2023-10-06T16:24:37.617Z,100070.09
2023-10-06T16:27:07.227Z,100065.88
2023-10-06T16:29:35.723Z,100077.06
2023-10-06T16:32:04.193Z,100081.91
2023-10-06T16:34:32.607Z,100088.13
2023-10-06T16:37:00.942Z,100091.78
2023-10-06T16:39:29.211Z,100086.59
2023-10-06T16:41:57.474Z,100095.69
2023-10-06T16:44:27.113Z,100095.94
2023-10-06T16:46:56.526Z,100104.41
2023-10-06T16:49:25.354Z,100108.47
2023-10-06T16:51:53.789Z,100119.91
2023-10-06T16:54:22.765Z,100117.72
2023-10-06T16:56:51.094Z,100126.28
2023-10-06T16:59:19.858Z,100128.78
2023-10-06T17:01:50.743Z,100134.13
2023-10-06T17:04:19.698Z,100140.13
2023-10-06T17:06:48.085Z,100143.41
2023-10-06T17:09:20.219Z,100145.88
2023-10-06T17:11:49.892Z,100142.63
2023-10-06T17:14:18.481Z,100142.28
2023-10-06T17:16:46.838Z,100147.16
2023-10-06T17:19:17.577Z,100148.81
2023-10-06T17:21:45.861Z,100150.09
2023-10-06T17:24:14.497Z,100147.44
2023-10-06T17:26:43.967Z,100153.03
2023-10-06T17:29:13.178Z,100149.56
2023-10-06T17:31:41.815Z,100155.91
2023-10-06T17:34:10.099Z,100152.00
2023-10-06T17:36:40.629Z,100159.19
2023-10-06T17:39:09.111Z,100161.22
2023-10-06T17:41:37.617Z,100168.72
2023-10-06T17:44:06.813Z,100164.84
2023-10-06T17:46:35.103Z,100171.16
2023-10-06T17:49:03.558Z,100174.91
2023-10-06T17:51:31.866Z,100187.22
2023-10-06T17:54:01.420Z,100183.25
2023-10-06T17:56:30.065Z,100183.66
2023-10-06T17:58:58.871Z,100193.47
2023-10-06T18:01:27.612Z,100194.31
2023-10-06T18:03:56.051Z,100191.94
2023-10-06T18:06:24.431Z,100194.34
2023-10-06T18:08:53.242Z,100195.59
2023-10-06T18:11:24.755Z,100195.97
2023-10-06T18:13:55.514Z,100202.31
2023-10-06T18:16:26.390Z,100208.19
2023-10-06T18:18:54.889Z,100210.63
2023-10-06T18:21:23.415Z,100205.88
2023-10-06T18:23:54.946Z,100216.56
2023-10-06T18:26:25.339Z,100212.59
2023-10-06T18:28:58.028Z,100217.38
2023-10-06T18:31:26.996Z,100216.97
2023-10-06T18:33:55.358Z,100212.66
2023-10-06T18:36:23.656Z,100220.16
2023-10-06T18:38:57.349Z,100220.16
2023-10-06T18:41:27.666Z,100220.19
2023-10-06T18:43:55.992Z,100226.50
2023-10-06T18:46:24.957Z,100228.84
2023-10-06T18:48:53.650Z,100223.34
2023-10-06T18:51:21.953Z,100228.47
2023-10-06T18:53:50.132Z,100233.63
2023-10-06T18:56:18.308Z,100234.06
2023-10-06T18:58:49.745Z,100230.16
2023-10-06T19:01:19.698Z,100227.00
2023-10-06T19:03:47.901Z,100232.91
2023-10-06T19:06:18.795Z,100231.69
2023-10-06T19:08:51.396Z,100229.72
2023-10-06T19:11:21.012Z,100228.13
2023-10-06T19:13:50.983Z,100231.75
2023-10-06T19:16:21.287Z,100234.88
2023-10-06T19:18:51.738Z,100236.88
2023-10-06T19:21:22.167Z,100238.88
2023-10-06T19:23:51.598Z,100236.13
2023-10-06T19:26:21.093Z,100239.28
2023-10-06T19:28:51.068Z,100245.97
2023-10-06T19:31:19.888Z,100235.75
2023-10-06T19:33:52.079Z,100236.94
2023-10-06T19:36:21.686Z,100238.16
2023-10-06T19:38:51.985Z,100246.03
2023-10-06T19:41:20.545Z,100249.94
2023-10-06T19:43:50.302Z,100246.03
2023-10-06T19:46:19.460Z,100245.22
2023-10-06T19:48:50.132Z,100239.38
2023-10-06T19:51:19.467Z,100245.25
2023-10-06T19:53:48.128Z,100240.53
2023-10-06T19:56:16.459Z,100245.25
2023-10-06T19:58:45.870Z,100243.69
2023-10-06T20:01:20.737Z,100246.84
2023-10-06T20:03:50.450Z,100253.53
2023-10-06T20:06:18.739Z,100252.34
2023-10-06T20:08:48.034Z,100254.72
2023-10-06T20:11:18.632Z,100257.84
2023-10-06T20:13:46.940Z,100250.78
2023-10-06T20:16:17.721Z,100258.25
2023-10-06T20:18:46.627Z,100256.28
2023-10-06T20:21:18.535Z,100262.63
2023-10-06T20:23:51.301Z,100264.59
2023-10-06T20:26:19.512Z,100260.66
2023-10-06T20:28:47.813Z,100264.97
2023-10-06T20:31:17.658Z,100274.78
2023-10-06T20:33:46.762Z,100275.19
2023-10-06T20:36:15.899Z,100280.69
2023-10-06T20:38:44.222Z,100269.34
2023-10-06T20:41:13.402Z,100265.78
2023-10-06T20:43:41.709Z,100265.44
2023-10-06T20:46:10.202Z,100272.50
2023-10-06T20:48:41.008Z,100273.28
2023-10-06T20:51:15.836Z,100268.59
2023-10-06T20:53:44.358Z,100266.63
2023-10-06T20:56:13.033Z,100267.44
2023-10-06T20:58:41.918Z,100272.13
2023-10-06T21:01:10.997Z,100265.84
2023-10-06T21:03:40.710Z,100273.72
2023-10-06T21:06:09.108Z,100273.28
2023-10-06T21:08:40.577Z,100272.13
2023-10-06T21:11:08.829Z,100272.09
2023-10-06T21:13:37.797Z,100270.53
2023-10-06T21:16:06.531Z,100272.47
2023-10-06T21:18:34.781Z,100272.03
2023-10-06T21:21:05.754Z,100280.69
2023-10-06T21:23:34.112Z,100277.91
2023-10-06T21:26:02.443Z,100279.47
2023-10-06T21:28:30.611Z,100290.03
2023-10-06T21:30:58.879Z,100301.81
2023-10-06T21:33:27.156Z,100296.72
2023-10-06T21:35:55.360Z,100297.53
2023-10-06T21:38:25.066Z,100303.78
2023-10-06T21:41:01.538Z,100299.84
2023-10-06T21:43:29.843Z,100304.09
2023-10-06T21:45:58.167Z,100309.97
2023-10-06T21:48:26.539Z,100305.22
2023-10-06T21:50:55.942Z,100319.72
2023-10-06T21:53:25.625Z,100320.50
2023-10-06T21:55:54.160Z,100322.09
2023-10-06T21:58:22.499Z,100312.72
2023-10-06T22:00:57.156Z,100326.03
2023-10-06T22:03:25.837Z,100326.41
2023-10-06T22:05:55.647Z,100331.13
2023-10-06T22:08:25.677Z,100333.88
2023-10-06T22:10:57.343Z,100333.09
2023-10-06T22:13:25.875Z,100335.06
2023-10-06T22:15:54.124Z,100336.25
2023-10-06T22:18:22.911Z,100326.06
2023-10-06T22:20:51.197Z,100331.56
2023-10-06T22:23:20.526Z,100339.41
2023-10-06T22:25:52.415Z,100335.53
2023-10-06T22:28:21.556Z,100336.31
2023-10-06T22:30:50.333Z,100339.47
2023-10-06T22:33:18.966Z,100336.31
2023-10-06T22:35:47.109Z,100343.38
2023-10-06T22:38:16.075Z,100337.09
2023-10-06T22:40:44.349Z,100337.47
2023-10-06T22:43:13.897Z,100342.94
2023-10-06T22:45:42.107Z,100348.84
2023-10-06T22:48:10.671Z,100349.66
2023-10-06T22:50:39.260Z,100353.94
2023-10-06T22:53:08.556Z,100353.53
2023-10-06T22:55:37.652Z,100346.06
2023-10-06T22:58:06.968Z,100353.91
2023-10-06T23:00:37.709Z,100348.00
2023-10-06T23:03:06.621Z,100342.53
2023-10-06T23:05:35.265Z,100346.88
2023-10-06T23:08:03.437Z,100345.28
2023-10-06T23:10:32.138Z,100337.41
2023-10-06T23:13:01.733Z,100345.25
2023-10-06T23:15:33.169Z,100340.91
2023-10-06T23:18:03.021Z,100333.81
2023-10-06T23:20:32.335Z,100338.53
2023-10-06T23:23:00.912Z,100327.19
2023-10-06T23:25:37.960Z,100330.72
2023-10-06T23:28:08.301Z,100329.91
2023-10-06T23:30:38.216Z,100335.78
2023-10-06T23:33:08.493Z,100336.97
2023-10-06T23:35:36.719Z,100336.56
2023-10-06T23:38:08.191Z,100342.47
2023-10-06T23:40:39.743Z,100337.38
2023-10-06T23:43:09.916Z,100335.06
2023-10-06T23:45:39.217Z,100339.38
2023-10-06T23:48:12.707Z,100333.13
2023-10-06T23:50:52.641Z,100334.69
2023-10-06T23:53:24.278Z,100324.88
2023-10-06T23:55:53.966Z,100322.88
2023-10-06T23:58:23.632Z,100320.50
